Time;durP1;ratioP1;P1;durP2;ratioP2;P2;SDS_P1;SDS_P2;PMS_P1;PMS_P2;Temp;Humidity;BMP_temperature;BMP_pressure;BME280_temperature;BME280_humidity;BME280_pressure;Samples;Min_cycle;Max_cycle;Signal;HPM_P1;HPM_P2
2022/08/19 00:00:30;;;;;;;13.98;8.68;;;;;;;20.65;71.60;99961.30;1482631;87;22468;-80
2022/08/19 00:02:56;;;;;;;10.77;8.10;;;;;;;20.62;71.77;99950.99;1484142;87;21567;-81
2022/08/19 00:05:23;;;;;;;9.13;7.70;;;;;;;20.58;72.21;99953.84;1447651;89;21457;-80
2022/08/19 00:07:50;;;;;;;14.65;8.73;;;;;;;20.51;72.55;99951.70;1443263;88;22676;-81
2022/08/19 00:10:18;;;;;;;13.23;8.23;;;;;;;20.47;73.06;99953.22;1485775;87;21470;-80
2022/08/19 00:12:44;;;;;;;11.80;8.45;;;;;;;20.46;72.58;99952.92;1480476;87;21463;-81
2022/08/19 00:15:16;;;;;;;8.88;8.08;;;;;;;20.43;72.81;99949.34;1460268;87;21441;-80
2022/08/19 00:17:44;;;;;;;12.75;9.58;;;;;;;20.38;72.89;99955.37;1471862;87;21558;-80
2022/08/19 00:20:16;;;;;;;11.65;8.50;;;;;;;20.34;72.84;99955.53;1488570;87;21521;-81
2022/08/19 00:22:45;;;;;;;14.10;8.70;;;;;;;20.31;73.12;99950.58;1482228;87;22321;-81
2022/08/19 00:25:12;;;;;;;10.93;7.90;;;;;;;20.28;73.82;99949.19;1465272;87;22313;-80
2022/08/19 00:27:39;;;;;;;9.87;8.67;;;;;;;20.25;73.44;99949.63;1465396;87;21492;-81
2022/08/19 00:30:07;;;;;;;12.40;9.10;;;;;;;20.26;73.40;99947.23;1472646;87;21530;-81
2022/08/19 00:32:34;;;;;;;11.90;8.80;;;;;;;20.24;73.30;99941.78;1486344;87;21418;-81
2022/08/19 00:35:01;;;;;;;16.13;8.87;;;;;;;20.22;73.79;99938.48;1460603;87;22469;-80
2022/08/19 00:37:28;;;;;;;12.77;8.73;;;;;;;20.21;74.23;99945.73;1483439;87;22468;-81
2022/08/19 00:39:55;;;;;;;10.30;7.80;;;;;;;20.22;74.68;99944.67;1479430;87;21536;-80
2022/08/19 00:42:31;;;;;;;10.23;8.37;;;;;;;20.21;75.19;99947.08;1481907;87;21381;-80
2022/08/19 00:44:58;;;;;;;9.43;7.80;;;;;;;20.22;75.33;99939.30;1467910;87;21603;-79
2022/08/19 00:47:24;;;;;;;12.70;7.73;;;;;;;20.22;75.49;99941.98;1468185;87;21633;-80
2022/08/19 00:49:55;;;;;;;17.42;9.50;;;;;;;20.22;75.28;99944.67;1476393;87;21551;-79
2022/08/19 00:52:28;;;;;;;11.47;9.23;;;;;;;20.20;75.31;99949.47;1489632;87;22416;-80
2022/08/19 00:54:57;;;;;;;10.87;8.87;;;;;;;20.18;75.59;99946.18;1483985;87;21521;-80
2022/08/19 00:57:32;;;;;;;14.33;8.77;;;;;;;20.14;75.94;99947.67;1487770;87;22335;-80
2022/08/19 01:00:01;;;;;;;9.63;8.27;;;;;;;20.13;75.95;99946.02;1493724;87;21492;-80
2022/08/19 01:02:29;;;;;;;10.00;9.00;;;;;;;20.13;75.45;99950.05;1480056;87;22334;-81
2022/08/19 01:04:56;;;;;;;12.73;8.47;;;;;;;20.13;75.45;99955.94;1490211;87;22305;-80
2022/08/19 01:07:23;;;;;;;11.30;8.53;;;;;;;20.11;75.30;99965.59;1477439;87;21598;-80
2022/08/19 01:09:49;;;;;;;10.40;9.00;;;;;;;20.07;75.30;99971.08;1495549;87;21736;-80
2022/08/19 01:12:16;;;;;;;11.07;9.40;;;;;;;20.00;75.46;99965.78;1466274;87;21655;-81
2022/08/19 01:14:43;;;;;;;13.10;9.27;;;;;;;19.97;75.12;99968.91;1475619;87;21537;-81
2022/08/19 01:17:11;;;;;;;15.73;10.07;;;;;;;19.95;75.28;99972.33;1488895;87;22676;-80
2022/08/19 01:19:41;;;;;;;10.93;8.10;;;;;;;19.93;75.80;99972.24;1466427;87;22513;-80
2022/08/19 01:22:32;;;;;;;11.53;8.18;;;;;;;19.88;76.44;99972.07;1490573;87;21420;-81
2022/08/19 01:24:59;;;;;;;13.50;8.53;;;;;;;19.84;76.85;99979.22;1449011;90;21492;-80
2022/08/19 01:27:25;;;;;;;15.47;10.90;;;;;;;19.83;76.69;99972.22;1452727;89;21454;-80
2022/08/19 01:29:51;;;;;;;10.37;9.27;;;;;;;19.82;76.77;99973.27;1457946;89;22366;-80
2022/08/19 01:32:20;;;;;;;13.97;9.87;;;;;;;19.81;76.17;99966.23;1467032;88;21580;-80
2022/08/19 01:34:46;;;;;;;13.07;9.80;;;;;;;19.80;76.28;99974.00;1460376;88;22401;-81
2022/08/19 01:37:14;;;;;;;11.03;9.93;;;;;;;19.76;76.30;99977.33;1451671;88;21463;-81
2022/08/19 01:39:41;;;;;;;9.63;8.40;;;;;;;19.71;76.60;99969.11;1460971;88;21499;-81
2022/08/19 01:42:09;;;;;;;11.47;9.00;;;;;;;19.64;77.39;99982.55;1461474;88;21485;-81
2022/08/19 01:44:36;;;;;;;12.97;9.50;;;;;;;19.60;77.66;99983.52;1472243;88;21581;-80
2022/08/19 01:47:09;;;;;;;15.27;9.33;;;;;;;19.61;77.57;99985.67;1512157;86;21462;-80
2022/08/19 01:49:35;;;;;;;16.33;9.67;;;;;;;19.61;77.59;99976.28;1510897;86;22466;-81
2022/08/19 01:52:05;;;;;;;10.93;9.67;;;;;;;19.61;77.39;99976.28;1505410;86;21478;-80
2022/08/19 01:54:32;;;;;;;11.93;10.73;;;;;;;19.60;77.25;99974.65;1502756;86;21457;-80
2022/08/19 01:57:03;;;;;;;10.53;8.97;;;;;;;19.56;77.64;99976.95;1491101;86;21469;-80
2022/08/19 01:59:31;;;;;;;12.70;9.50;;;;;;;19.51;77.83;99970.06;1504214;86;21550;-80
2022/08/19 02:01:57;;;;;;;10.80;9.70;;;;;;;19.47;78.08;99969.36;1503423;86;21722;-80
2022/08/19 02:04:25;;;;;;;10.33;8.93;;;;;;;19.42;78.72;99974.55;1471035;87;21616;-79
2022/08/19 02:06:51;;;;;;;19.37;9.80;;;;;;;19.34;80.45;99979.15;1483574;86;21568;-80
2022/08/19 02:09:17;;;;;;;13.77;8.97;;;;;;;19.31;80.51;99976.90;1504451;86;22490;-80
2022/08/19 02:11:44;;;;;;;12.23;9.90;;;;;;;19.30;80.47;99969.87;1502764;86;21661;-81
2022/08/19 02:14:10;;;;;;;14.50;9.73;;;;;;;19.29;80.93;99972.26;1507505;86;22415;-80
2022/08/19 02:16:38;;;;;;;12.90;10.63;;;;;;;19.30;80.85;99965.03;1497866;86;21427;-80
2022/08/19 02:19:04;;;;;;;13.23;9.77;;;;;;;19.29;80.70;99969.58;1512910;86;21991;-80
2022/08/19 02:21:31;;;;;;;12.77;10.27;;;;;;;19.29;80.59;99958.84;1502886;86;21420;-80
2022/08/19 02:23:58;;;;;;;14.30;10.10;;;;;;;19.30;80.26;99961.82;1482571;88;21485;-80
2022/08/19 02:26:26;;;;;;;12.30;10.90;;;;;;;19.32;79.87;99962.96;1457789;89;22417;-81
2022/08/19 02:28:54;;;;;;;11.07;9.97;;;;;;;19.30;80.09;99963.16;1427978;90;21493;-80
2022/08/19 02:31:23;;;;;;;13.73;10.70;;;;;;;19.28;79.91;99964.45;1469942;88;21561;-82
2022/08/19 02:33:50;;;;;;;12.80;10.90;;;;;;;19.23;80.03;99960.23;1457906;89;21478;-81
2022/08/19 02:36:17;;;;;;;12.50;10.33;;;;;;;19.18;79.92;99957.38;1469064;87;22476;-81
2022/08/19 02:38:44;;;;;;;16.77;12.10;;;;;;;19.13;80.33;99948.61;1473637;88;21478;-80
2022/08/19 02:41:21;;;;;;;11.90;9.57;;;;;;;19.07;80.35;99944.94;1476634;87;21456;-80
2022/08/19 02:43:48;;;;;;;10.23;9.13;;;;;;;19.04;80.79;99944.02;1458201;89;21463;-80
2022/08/19 02:46:21;;;;;;;11.83;9.40;;;;;;;19.00;80.90;99948.70;1471873;88;21573;-80
2022/08/19 02:48:52;;;;;;;11.73;10.53;;;;;;;18.94;80.87;99941.81;1470649;88;21411;-80
2022/08/19 02:51:32;;;;;;;13.73;11.33;;;;;;;18.88;81.58;99945.36;1465699;88;21536;-80
2022/08/19 02:53:59;;;;;;;11.78;10.40;;;;;;;18.83;81.47;99943.01;1441835;90;21596;-81
2022/08/19 02:56:27;;;;;;;13.00;11.33;;;;;;;18.79;81.71;99943.11;1437522;90;21516;-81
2022/08/19 02:58:57;;;;;;;16.50;10.20;;;;;;;18.77;82.20;99935.30;1450055;90;21576;-81
2022/08/19 03:01:28;;;;;;;12.05;10.03;;;;;;;18.76;81.71;99926.97;1475363;88;21506;-81
2022/08/19 03:03:55;;;;;;;12.43;10.20;;;;;;;18.73;82.51;99930.04;1475288;88;21574;-81
2022/08/19 03:06:23;;;;;;;16.07;10.03;;;;;;;18.74;82.63;99933.05;1481017;88;21669;-82
2022/08/19 03:08:49;;;;;;;12.83;11.37;;;;;;;18.72;83.29;99930.53;1473176;88;21470;-82
2022/08/19 03:11:27;;;;;;;17.80;11.53;;;;;;;18.71;84.37;99932.92;1483789;88;22225;-81
2022/08/19 03:13:54;;;;;;;13.83;10.77;;;;;;;18.73;83.25;99928.70;1478018;87;21603;-80
2022/08/19 03:16:27;;;;;;;16.77;11.10;;;;;;;18.72;82.95;99925.17;1454752;88;21551;-79
2022/08/19 03:18:56;;;;;;;27.60;11.57;;;;;;;18.71;84.27;99916.02;1478381;88;21499;-81
2022/08/19 03:21:26;;;;;;;13.73;10.93;;;;;;;18.69;84.64;99921.58;1484143;88;21352;-81
2022/08/19 03:23:58;;;;;;;14.18;10.80;;;;;;;18.68;85.06;99921.81;1484510;88;22328;-81
2022/08/19 03:26:24;;;;;;;18.33;10.63;;;;;;;18.68;85.60;99921.81;1481611;88;22438;-82
2022/08/19 03:28:51;;;;;;;15.33;11.27;;;;;;;18.70;86.21;99926.41;1482420;87;21462;-82
2022/08/19 03:31:24;;;;;;;12.50;11.10;;;;;;;18.70;85.76;99928.61;1485240;87;21485;-82
2022/08/19 03:33:51;;;;;;;17.17;12.00;;;;;;;18.70;84.88;99938.48;1476054;88;21434;-82
2022/08/19 03:36:27;;;;;;;14.73;11.77;;;;;;;18.70;84.21;99937.14;1478254;87;21506;-81
2022/08/19 03:38:57;;;;;;;12.33;10.17;;;;;;;18.68;84.37;99935.21;1479039;88;21543;-81
2022/08/19 03:41:26;;;;;;;;;;;;;;;18.66;84.34;99933.25;1468205;88;21432;-82
2022/08/19 03:43:54;;;;;;;22.53;10.63;;;;;;;18.65;85.39;99945.02;1479210;88;20291;-80
2022/08/19 03:46:27;;;;;;;13.73;10.47;;;;;;;18.63;84.48;99951.09;1477079;88;21447;-80
2022/08/19 03:48:56;;;;;;;17.27;10.90;;;;;;;18.62;85.17;99962.34;1473869;88;22385;-81
2022/08/19 03:51:30;;;;;;;21.47;13.27;;;;;;;18.60;84.82;99972.97;1476791;87;21522;-82
2022/08/19 03:54:00;;;;;;;13.97;12.17;;;;;;;18.60;84.80;99981.00;1460967;88;21544;-81
2022/08/19 03:56:27;;;;;;;15.75;12.03;;;;;;;18.53;86.53;99977.50;1455538;88;21655;-81
2022/08/19 03:58:56;;;;;;;13.27;11.77;;;;;;;18.52;86.66;99977.20;1489292;88;21507;-80
2022/08/19 04:01:26;;;;;;;15.87;11.80;;;;;;;18.54;86.81;99977.83;1464455;88;21456;-79
2022/08/19 04:03:53;;;;;;;24.25;11.43;;;;;;;18.58;86.61;99972.34;1462074;88;21405;-80
2022/08/19 04:06:30;;;;;;;12.07;10.80;;;;;;;18.63;85.65;99968.00;1461503;88;21480;-80
2022/08/19 04:08:58;;;;;;;16.73;10.60;;;;;;;18.67;85.82;99967.05;1461808;89;22574;-80
2022/08/19 04:11:28;;;;;;;13.50;11.80;;;;;;;18.69;85.51;99969.83;1462011;88;21487;-81
2022/08/19 04:13:55;;;;;;;15.05;11.85;;;;;;;18.72;85.40;99974.77;1463676;88;21537;-80
2022/08/19 04:16:24;;;;;;;14.97;12.60;;;;;;;18.77;85.18;99975.52;1478552;87;22430;-80
2022/08/19 04:18:51;;;;;;;13.83;11.80;;;;;;;18.82;85.07;99978.38;1475106;88;21531;-80
2022/08/19 04:21:22;;;;;;;16.93;11.33;;;;;;;18.86;84.88;99980.94;1477509;88;21485;-79
2022/08/19 04:23:49;;;;;;;14.20;11.50;;;;;;;18.86;85.17;99981.45;1485815;88;22247;-79
2022/08/19 04:26:24;;;;;;;12.13;10.00;;;;;;;18.89;85.09;99997.94;1447955;89;22381;-80
2022/08/19 04:28:51;;;;;;;16.07;11.63;;;;;;;18.93;85.15;100004.53;1480952;88;22468;-80
2022/08/19 04:31:25;;;;;;;14.53;10.93;;;;;;;19.01;85.51;100014.70;1485629;88;22416;-80
2022/08/19 04:33:51;;;;;;;16.23;12.40;;;;;;;19.04;85.23;100015.09;1486089;88;22104;-80
2022/08/19 04:36:28;;;;;;;15.57;12.17;;;;;;;19.08;85.23;100024.90;1458224;88;21538;-80
2022/08/19 04:38:58;;;;;;;17.00;12.17;;;;;;;19.09;85.89;100033.23;1454799;89;22318;-80
2022/08/19 04:44:10;;;;;;;14.63;12.17;;;;;;;19.10;85.70;100034.88;1476758;88;21411;-80
2022/08/19 04:46:37;;;;;;;14.73;11.30;;;;;;;19.18;85.52;100032.48;1481685;88;21434;-80
2022/08/19 04:49:05;;;;;;;20.07;12.17;;;;;;;19.29;85.26;100032.63;1489366;88;21485;-80
2022/08/19 04:51:33;;;;;;;18.03;11.87;;;;;;;19.39;85.05;100030.31;1474132;88;21515;-79
2022/08/19 04:54:01;;;;;;;15.47;12.37;;;;;;;19.47;85.16;100036.45;1474023;87;21485;-79
2022/08/19 04:56:29;;;;;;;21.17;13.40;;;;;;;19.55;84.85;100039.70;1474557;87;21477;-81
2022/08/19 04:58:56;;;;;;;19.53;13.90;;;;;;;19.62;84.68;100038.31;1491751;87;21463;-81
2022/08/19 05:01:29;;;;;;;21.52;12.85;;;;;;;19.73;84.46;100030.94;1471938;87;22239;-80
2022/08/19 05:03:57;;;;;;;17.42;12.85;;;;;;;19.76;84.71;100028.34;1482434;87;21470;-81
2022/08/19 05:06:25;;;;;;;32.00;12.28;;;;;;;19.82;84.52;100028.32;1468795;87;21492;-83
2022/08/19 05:08:51;;;;;;;25.70;11.57;;;;;;;19.88;84.25;100031.15;1474805;87;21558;-81
2022/08/19 05:11:28;;;;;;;24.20;13.95;;;;;;;19.97;84.15;100029.86;1482339;87;21412;-81
2022/08/19 05:13:55;;;;;;;21.82;13.32;;;;;;;20.06;84.01;100024.52;1482298;87;21625;-80
2022/08/19 05:16:23;;;;;;;21.40;13.58;;;;;;;20.14;83.65;100019.37;1478407;87;21562;-80
2022/08/19 05:24:23;;;;;;;17.57;13.10;;;;;;;20.48;82.15;100007.27;1483954;87;22542;-81
2022/08/19 05:26:52;;;;;;;18.20;12.68;;;;;;;20.64;81.77;100012.62;1472507;87;22261;-79
2022/08/19 05:29:20;;;;;;;13.18;11.80;;;;;;;20.78;81.12;100015.98;1467895;87;21455;-79
2022/08/19 05:31:54;;;;;;;13.60;11.93;;;;;;;20.90;80.30;100022.25;1491717;87;21470;-80
2022/08/19 05:34:25;;;;;;;13.95;12.35;;;;;;;21.03;79.63;100025.29;1483764;87;21490;-79
2022/08/19 05:36:57;;;;;;;13.58;12.25;;;;;;;21.19;79.00;100020.11;1476158;87;21647;-80
2022/08/19 05:39:30;;;;;;;16.50;11.50;;;;;;;21.33;78.47;100015.91;1486180;87;21484;-80
2022/08/19 05:42:01;;;;;;;16.90;9.83;;;;;;;21.42;77.61;100020.48;1439548;88;21493;-79
2022/08/19 05:44:31;;;;;;;19.67;10.78;;;;;;;21.51;77.31;100022.61;1443463;88;21471;-81
2022/08/19 05:46:58;;;;;;;;;;;;;;;21.66;77.06;100022.70;1456364;90;22380;-80
2022/08/19 05:49:26;;;;;;;18.82;11.65;;;;;;;21.75;75.60;100022.66;1449396;88;20513;-80
2022/08/19 05:51:54;;;;;;;14.73;10.93;;;;;;;21.88;75.67;100027.86;1453615;88;21477;-80
2022/08/19 05:54:22;;;;;;;17.23;11.80;;;;;;;22.00;75.03;100032.73;1459921;89;21515;-81
2022/08/19 05:56:51;;;;;;;24.12;11.57;;;;;;;22.14;74.62;100034.69;1475425;88;21563;-80
2022/08/19 05:59:21;;;;;;;12.18;10.88;;;;;;;22.30;74.42;100044.00;1471522;88;21471;-81
2022/08/19 06:01:54;;;;;;;18.27;11.78;;;;;;;22.45;73.74;100045.69;1454925;88;21639;-80
2022/08/19 06:04:21;;;;;;;15.23;11.12;;;;;;;22.56;72.93;100052.14;1453588;88;21404;-80
2022/08/19 06:06:50;;;;;;;15.35;11.05;;;;;;;22.79;72.15;100044.55;1474753;88;21529;-81
2022/08/19 06:09:17;;;;;;;12.65;10.30;;;;;;;22.79;72.15;100044.55;1451528;88;21440;-81
2022/08/19 06:11:47;;;;;;;13.83;10.48;;;;;;;22.87;71.23;100046.89;1459448;88;21433;-80
2022/08/19 06:14:18;;;;;;;13.10;11.15;;;;;;;23.03;70.74;100045.88;1469123;88;21448;-81
2022/08/19 06:16:45;;;;;;;18.80;10.85;;;;;;;23.12;69.99;100042.55;1438722;89;21501;-81
2022/08/19 06:19:18;;;;;;;13.28;9.93;;;;;;;23.22;69.65;100046.00;1462927;89;21585;-81
2022/08/19 06:21:47;;;;;;;13.58;9.95;;;;;;;23.32;68.93;100044.83;1446254;90;21641;-81
2022/08/19 06:24:18;;;;;;;13.62;11.18;;;;;;;23.40;68.79;100033.65;1455698;89;22239;-81
2022/08/19 06:26:48;;;;;;;13.65;10.55;;;;;;;23.55;68.92;100029.05;1426617;90;21476;-81
2022/08/19 06:29:16;;;;;;;11.33;9.88;;;;;;;23.68;68.49;100018.49;1437322;89;22094;-81
2022/08/19 06:31:49;;;;;;;15.32;9.38;;;;;;;23.77;67.81;100018.41;1451268;89;21654;-81
2022/08/19 06:34:16;;;;;;;20.23;9.80;;;;;;;23.89;67.54;100017.52;1440475;89;21619;-80
2022/08/19 06:36:46;;;;;;;25.05;11.38;;;;;;;24.02;67.38;100014.46;1442910;89;21604;-79
2022/08/19 06:39:17;;;;;;;12.25;10.43;;;;;;;24.16;67.01;100001.44;1443911;89;21634;-81
2022/08/19 06:41:47;;;;;;;26.02;9.43;;;;;;;24.29;66.85;100001.91;1456857;89;21581;-81
2022/08/19 06:44:15;;;;;;;18.55;8.68;;;;;;;24.43;66.01;100008.36;1470013;89;21515;-81
2022/08/19 06:46:42;;;;;;;15.50;9.10;;;;;;;24.62;65.87;100012.39;1469569;89;21530;-81
2022/08/19 06:49:13;;;;;;;16.00;9.53;;;;;;;24.82;65.23;100012.38;1509244;86;21464;-81
2022/08/19 06:51:41;;;;;;;15.00;8.58;;;;;;;24.99;64.67;100016.65;1486679;86;22407;-80
2022/08/19 06:54:08;;;;;;;13.70;9.53;;;;;;;25.16;63.38;100023.92;1488587;86;21507;-81
2022/08/19 06:56:34;;;;;;;15.93;8.60;;;;;;;25.27;63.34;100020.25;1510279;86;21728;-81
2022/08/19 06:59:11;;;;;;;15.45;9.85;;;;;;;25.39;63.03;100024.98;1510420;86;21679;-82
2022/08/19 07:01:41;;;;;;;11.55;9.15;;;;;;;25.56;62.83;100031.66;1498951;86;21383;-81
2022/08/19 07:04:09;;;;;;;13.75;9.05;;;;;;;25.69;61.96;100035.02;1490313;86;21435;-81
2022/08/19 07:06:36;;;;;;;14.18;9.23;;;;;;;25.82;61.33;100040.02;1506252;86;22393;-81
2022/08/19 07:09:06;;;;;;;13.08;8.78;;;;;;;25.87;60.10;100042.81;1510149;86;22341;-81
2022/08/19 07:11:32;;;;;;;15.18;8.80;;;;;;;25.93;60.06;100031.48;1495393;86;22439;-81
2022/08/19 07:14:00;;;;;;;17.42;9.03;;;;;;;26.08;60.71;100046.50;1508674;86;21476;-81
2022/08/19 07:16:27;;;;;;;12.78;8.93;;;;;;;26.17;59.02;100034.63;1506345;86;21574;-78
2022/08/19 07:18:55;;;;;;;15.53;8.68;;;;;;;26.31;60.07;100035.27;1492085;86;21635;-81
2022/08/19 07:21:27;;;;;;;13.40;7.28;;;;;;;26.45;59.14;100041.06;1493076;86;21479;-79
2022/08/19 07:23:58;;;;;;;15.28;8.00;;;;;;;26.57;58.41;100036.02;1498432;86;21508;-79
2022/08/19 07:26:31;;;;;;;13.80;7.78;;;;;;;26.67;57.82;100037.41;1511144;86;21380;-80
2022/08/19 07:29:01;;;;;;;19.92;8.08;;;;;;;26.74;56.95;100038.00;1507573;86;21456;-80
2022/08/19 07:31:28;;;;;;;12.65;7.58;;;;;;;26.91;57.23;100041.88;1490024;86;22520;-80
2022/08/19 07:33:56;;;;;;;10.72;7.95;;;;;;;27.10;57.45;100035.42;1492486;87;22441;-80
2022/08/19 07:36:32;;;;;;;9.65;7.55;;;;;;;27.26;57.16;100048.01;1499056;86;22248;-78
2022/08/19 07:39:02;;;;;;;11.73;6.47;;;;;;;27.38;55.72;100040.42;1490273;87;22315;-79
2022/08/19 07:41:30;;;;;;;13.75;7.72;;;;;;;27.49;55.29;100037.74;1501979;86;21462;-79
2022/08/19 07:43:57;;;;;;;11.97;7.05;;;;;;;27.58;53.68;100037.48;1511124;86;21469;-78
2022/08/19 07:46:23;;;;;;;7.83;7.10;;;;;;;27.71;54.41;100031.52;1456896;89;21538;-81
2022/08/19 07:48:51;;;;;;;21.57;7.62;;;;;;;27.72;53.04;100029.61;1475539;87;21599;-81
2022/08/19 07:51:20;;;;;;;19.17;7.72;;;;;;;27.79;53.13;100035.07;1462717;88;22374;-81
2022/08/19 07:53:50;;;;;;;11.00;6.83;;;;;;;27.90;53.25;100039.42;1473490;88;21708;-81
2022/08/19 07:56:19;;;;;;;11.40;7.70;;;;;;;28.06;52.99;100044.88;1475137;88;21515;-81
2022/08/19 07:58:49;;;;;;;21.52;6.85;;;;;;;27.96;51.30;100043.52;1475437;87;21382;-80
2022/08/19 08:01:19;;;;;;;;;;;;;;;28.06;52.33;100046.24;1482105;88;21426;-81
2022/08/19 08:09:22;;;;;;;9.95;6.42;;;;;;;28.55;51.65;100042.94;1480854;87;21441;-81
2022/08/19 08:11:56;;;;;;;13.05;6.15;;;;;;;28.77;51.18;100047.50;1467291;88;22543;-81
2022/08/19 08:14:34;;;;;;;8.75;6.00;;;;;;;28.91;50.66;100046.89;1470491;88;21541;-81
2022/08/19 08:17:04;;;;;;;13.68;6.50;;;;;;;29.10;50.72;100047.93;1465393;88;21567;-81
2022/08/19 08:19:30;;;;;;;;;;;;;;;29.22;49.77;100036.14;1472288;88;21723;-81
2022/08/19 08:22:00;;;;;;;14.45;5.53;;;;;;;29.33;49.04;100032.01;1479882;88;20247;-81
2022/08/19 08:24:30;;;;;;;10.80;6.35;;;;;;;29.41;48.47;100031.42;1474317;88;22881;-80
2022/08/19 08:26:59;;;;;;;11.45;5.95;;;;;;;29.51;48.06;100035.42;1473951;88;21457;-81
2022/08/19 08:29:31;;;;;;;7.33;5.60;;;;;;;29.52;45.85;100037.08;1478198;88;21480;-80
2022/08/19 08:31:57;;;;;;;9.55;5.95;;;;;;;29.59;46.95;100034.02;1467975;88;21426;-81
2022/08/19 08:34:23;;;;;;;12.68;6.00;;;;;;;29.69;47.64;100036.69;1472012;88;21428;-81
2022/08/19 08:36:51;;;;;;;12.90;5.92;;;;;;;29.83;47.70;100039.59;1486016;88;21470;-80
2022/08/19 08:39:21;;;;;;;10.38;5.87;;;;;;;29.95;46.27;100038.66;1478108;88;21398;-81
2022/08/19 08:42:13;;;;;;;12.25;6.22;;;;;;;30.06;46.67;100037.47;1455992;88;21472;-80
2022/08/19 08:45:02;;;;;;;14.45;5.62;;;;;;;30.15;44.55;100034.94;1472057;88;21494;-82
2022/08/19 08:47:39;;;;;;;13.62;6.45;;;;;;;30.35;46.15;100036.16;1467231;88;21463;-81
2022/08/19 08:50:14;;;;;;;8.58;5.53;;;;;;;30.53;45.15;100033.80;1481230;88;21644;-81
2022/08/19 08:52:48;;;;;;;11.38;5.80;;;;;;;30.61;45.43;100030.40;1477455;88;21742;-81
2022/08/19 08:55:20;;;;;;;11.83;6.10;;;;;;;30.78;45.16;100025.83;1465869;87;21679;-81
2022/08/19 08:58:08;;;;;;;10.50;6.53;;;;;;;30.92;45.05;100026.78;1480037;87;21470;-88
2022/08/19 09:00:40;;;;;;;10.38;6.05;;;;;;;31.09;44.89;100024.12;1477668;87;21433;-88
2022/08/19 09:03:11;;;;;;;11.93;6.15;;;;;;;31.23;44.51;100020.91;1464881;87;21441;-89
2022/08/19 09:06:03;;;;;;;9.83;6.00;;;;;;;31.18;43.43;100019.05;1473928;87;21575;-88
2022/08/19 09:08:57;;;;;;;6.80;5.62;;;;;;;31.34;43.80;100017.48;1442431;88;21582;-86
2022/08/19 09:11:53;;;;;;;9.98;5.58;;;;;;;31.47;43.79;100018.93;1463427;88;21463;-85
2022/08/19 09:14:49;;;;;;;14.68;6.10;;;;;;;31.62;43.58;100013.80;1450248;88;21441;-84
2022/08/19 09:17:16;;;;;;;10.38;5.90;;;;;;;31.70;43.04;100010.92;1462203;88;21559;-85
2022/08/19 09:19:53;;;;;;;7.75;5.60;;;;;;;31.87;42.68;100009.81;1440866;88;22394;-85
2022/08/19 09:22:21;;;;;;;9.83;5.53;;;;;;;32.01;41.94;100003.61;1447737;88;22053;-86
2022/08/19 09:24:52;;;;;;;6.80;5.87;;;;;;;32.00;41.17;100001.99;1443606;88;21530;-84
2022/08/19 09:27:20;;;;;;;9.53;5.65;;;;;;;32.06;40.91;100004.89;1456433;88;22345;-83
2022/08/19 09:29:53;;;;;;;15.03;5.05;;;;;;;31.98;40.85;100004.20;1462196;88;21506;-85
2022/08/19 09:32:17;;;;;;;10.50;5.87;;;;;;;32.06;41.08;100004.89;1461773;88;21579;-86
2022/08/19 09:34:44;;;;;;;8.50;5.17;;;;;;;32.18;40.86;100005.20;1464965;87;22467;-84
2022/08/19 09:37:10;;;;;;;12.53;5.42;;;;;;;32.26;40.25;100005.88;1478203;87;21586;-86
2022/08/19 09:39:40;;;;;;;14.60;5.70;;;;;;;32.17;39.50;99995.91;1408266;89;21412;-85
2022/08/19 09:42:11;;;;;;;6.97;4.83;;;;;;;32.36;39.74;99998.83;1480092;87;21463;-85
2022/08/19 09:44:35;;;;;;;7.17;4.75;;;;;;;32.51;39.97;99992.83;1449662;89;22520;-83
2022/08/19 09:47:03;;;;;;;7.47;5.67;;;;;;;32.65;38.81;99990.89;1454483;90;21413;-86
2022/08/19 09:49:29;;;;;;;6.83;4.70;;;;;;;32.75;39.63;99989.33;1446286;89;21545;-86
2022/08/19 09:51:55;;;;;;;8.70;5.00;;;;;;;32.83;38.02;99986.44;1457182;88;22387;-85
2022/08/19 09:54:23;;;;;;;6.85;4.83;;;;;;;32.78;37.18;99985.97;1457833;88;22183;-84
2022/08/19 09:56:49;;;;;;;6.08;5.10;;;;;;;32.97;38.55;99990.50;1495301;86;22278;-84
2022/08/19 09:59:16;;;;;;;9.40;5.17;;;;;;;33.15;39.08;99988.22;1497077;87;21626;-82
2022/08/19 10:01:42;;;;;;;7.67;4.37;;;;;;;33.25;38.90;99988.53;1493859;86;22285;-85
2022/08/19 10:04:09;;;;;;;8.83;5.40;;;;;;;33.30;37.60;99986.24;1506044;86;21396;-85
2022/08/19 10:06:39;;;;;;;5.37;4.87;;;;;;;33.37;37.60;99981.13;1508526;86;22327;-86
2022/08/19 10:09:09;;;;;;;9.53;4.80;;;;;;;33.48;37.49;99989.36;1510889;86;21449;-85
2022/08/19 10:11:38;;;;;;;10.00;5.58;;;;;;;33.59;36.86;99989.96;1505946;86;22402;-85
2022/08/19 10:14:05;;;;;;;8.70;4.95;;;;;;;33.65;36.86;99989.52;1516037;86;21470;-87
2022/08/19 10:16:32;;;;;;;17.02;5.85;;;;;;;33.70;37.04;99993.51;1503139;86;21447;-84
2022/08/19 10:18:59;;;;;;;8.83;4.87;;;;;;;33.74;36.89;99991.51;1497506;86;22587;-86
2022/08/19 10:21:32;;;;;;;11.05;4.85;;;;;;;33.75;35.48;99975.28;1499471;86;21612;-85
2022/08/19 10:24:03;;;;;;;4.97;4.47;;;;;;;33.66;33.91;99984.83;1465261;88;21706;-85
2022/08/19 10:26:36;;;;;;;10.58;4.97;;;;;;;33.74;35.55;99977.78;1456577;88;21412;-82
2022/08/19 10:29:04;;;;;;;11.88;5.22;;;;;;;33.84;34.92;99967.37;1409401;88;21589;-83
2022/08/19 10:31:33;;;;;;;8.05;4.55;;;;;;;33.94;35.56;99974.52;1528610;89;21486;-83
2022/08/19 10:34:01;;;;;;;7.05;4.35;;;;;;;33.95;34.53;99969.83;1370097;88;21369;-84
2022/08/19 10:36:32;;;;;;;5.08;4.45;;;;;;;33.98;34.94;99971.41;1417862;88;21514;-85
2022/08/19 10:39:02;;;;;;;10.85;4.78;;;;;;;34.09;34.95;99970.58;1456072;89;21677;-85
2022/08/19 10:41:33;;;;;;;5.37;4.80;;;;;;;34.27;35.13;99968.70;1495245;86;21560;-84
2022/08/19 10:44:04;;;;;;;6.90;4.62;;;;;;;34.32;34.54;99961.14;1498438;86;21447;-84
2022/08/19 10:46:33;;;;;;;5.45;4.60;;;;;;;34.39;34.31;99961.27;1396352;90;22352;-84
2022/08/19 10:49:01;;;;;;;9.48;4.33;;;;;;;34.44;34.16;99962.47;1385512;89;21514;-85
2022/08/19 10:54:12;;;;;;;5.87;4.55;;;;;;;34.48;34.41;99954.66;1455079;88;21648;-86
2022/08/19 10:56:50;;;;;;;6.55;4.20;;;;;;;34.61;33.72;99957.05;1450198;87;21502;-88
2022/08/19 10:59:27;;;;;;;9.58;4.83;;;;;;;34.58;33.29;99953.03;1498635;86;21448;-85
2022/08/19 11:02:01;;;;;;;4.80;3.98;;;;;;;34.45;32.78;99942.94;1495481;86;21413;-82
2022/08/19 11:04:27;;;;;;;4.85;4.35;;;;;;;34.30;32.24;99933.77;1495854;86;21594;-83
2022/08/19 11:06:53;;;;;;;10.93;4.83;;;;;;;34.21;31.38;99934.28;1496531;86;22699;-82
2022/08/19 11:09:27;;;;;;;7.10;4.10;;;;;;;34.43;33.02;99934.19;1494636;86;21603;-85
2022/08/19 11:11:54;;;;;;;5.37;4.65;;;;;;;34.66;32.71;99936.86;1511773;86;21375;-86
2022/08/19 11:14:23;;;;;;;6.80;4.15;;;;;;;34.83;32.79;99931.96;1435344;86;21383;-86
2022/08/19 11:16:50;;;;;;;;;;;;;;;35.00;32.81;99932.77;1499062;86;21461;-86
2022/08/19 11:19:18;;;;;;;6.10;4.60;;;;;;;34.99;31.06;99924.30;1499242;86;21599;-82
2022/08/19 11:21:48;;;;;;;10.63;5.65;;;;;;;35.11;32.23;99925.63;1468431;86;22630;-87
2022/08/19 11:24:22;;;;;;;7.12;4.55;;;;;;;35.13;32.22;99920.58;1483990;87;21508;-85
2022/08/19 11:26:51;;;;;;;11.33;4.92;;;;;;;35.26;32.01;99928.67;1489469;87;21397;-84
2022/08/19 11:29:21;;;;;;;9.48;4.53;;;;;;;35.34;32.47;99924.30;1486935;87;21441;-86
2022/08/19 11:31:49;;;;;;;9.30;4.37;;;;;;;35.35;32.37;99922.35;1490849;87;21489;-87
2022/08/19 11:34:20;;;;;;;8.00;4.60;;;;;;;35.40;31.90;99919.44;1491832;87;21406;-86
2022/08/19 11:36:48;;;;;;;6.03;4.35;;;;;;;35.24;30.68;99915.00;1487506;87;22249;-86
2022/08/19 11:39:18;;;;;;;10.40;4.92;;;;;;;35.22;31.82;99908.46;1442220;89;22233;-86
2022/08/19 11:41:45;;;;;;;12.68;4.70;;;;;;;35.31;32.03;99909.83;1445854;90;21449;-87
2022/08/19 11:44:13;;;;;;;8.23;4.53;;;;;;;35.33;31.50;99903.41;1449349;90;21495;-87
2022/08/19 11:46:45;;;;;;;13.62;4.83;;;;;;;35.38;31.83;99900.50;1444455;90;21515;-86
2022/08/19 11:49:10;;;;;;;5.47;4.17;;;;;;;35.54;31.86;99901.37;1447791;90;22504;-87